createdAt,value
2022-12-31T00:02:20.759Z,100.00
2022-12-31T00:04:47.977Z,100.00
2022-12-31T00:07:15.063Z,100.00
2022-12-31T00:09:42.199Z,100.00
2022-12-31T00:12:09.350Z,100.00
2022-12-31T00:14:36.641Z,100.00
2022-12-31T00:17:03.790Z,100.00
2022-12-31T00:19:30.993Z,100.00
2022-12-31T00:21:58.056Z,100.00
2022-12-31T00:24:25.212Z,100.00
2022-12-31T00:26:52.294Z,100.00
2022-12-31T00:29:19.357Z,100.00
2022-12-31T00:31:46.454Z,100.00
2022-12-31T00:34:13.624Z,100.00
2022-12-31T00:36:42.518Z,100.00
2022-12-31T00:39:10.504Z,100.00
2022-12-31T00:41:37.892Z,100.00
2022-12-31T00:44:05.528Z,100.00
2022-12-31T00:46:32.770Z,100.00
2022-12-31T00:48:59.942Z,100.00
2022-12-31T00:51:27.783Z,100.00
2022-12-31T00:53:56.535Z,100.00
2022-12-31T00:56:26.870Z,100.00
2022-12-31T00:58:54.236Z,100.00
2022-12-31T01:01:36.168Z,100.00
2022-12-31T01:04:16.878Z,100.00
2022-12-31T01:06:44.438Z,100.00
2022-12-31T01:09:13.734Z,100.00
2022-12-31T01:11:41.022Z,100.00
2022-12-31T01:14:11.799Z,100.00
2022-12-31T01:16:53.388Z,100.00
2022-12-31T01:19:29.099Z,100.00
2022-12-31T01:21:57.067Z,100.00
2022-12-31T01:24:24.622Z,100.00
2022-12-31T01:26:51.907Z,100.00
2022-12-31T01:29:19.195Z,100.00
2022-12-31T01:31:46.337Z,100.00
2022-12-31T01:34:13.477Z,100.00
2022-12-31T01:36:40.569Z,100.00
2022-12-31T01:39:08.732Z,100.00
2022-12-31T01:41:38.711Z,100.00
2022-12-31T01:44:11.690Z,100.00
2022-12-31T01:46:42.487Z,100.00
2022-12-31T01:49:34.316Z,100.00
2022-12-31T01:52:08.849Z,100.00
2022-12-31T01:54:44.593Z,100.00
2022-12-31T01:57:12.732Z,100.00
2022-12-31T01:59:41.020Z,100.00
2022-12-31T02:02:08.235Z,100.00
2022-12-31T02:04:35.545Z,100.00
2022-12-31T02:07:05.290Z,100.00
2022-12-31T02:09:34.486Z,100.00
2022-12-31T02:12:01.623Z,100.00
2022-12-31T02:14:50.679Z,100.00
2022-12-31T02:17:34.037Z,100.00
2022-12-31T02:20:19.299Z,100.00
2022-12-31T02:23:07.852Z,100.00
2022-12-31T02:25:52.500Z,100.00
2022-12-31T02:28:35.461Z,100.00
2022-12-31T02:31:18.404Z,100.00
2022-12-31T02:33:54.528Z,100.00
2022-12-31T02:36:25.596Z,100.00
2022-12-31T02:38:54.705Z,100.00
2022-12-31T02:41:40.484Z,100.00
2022-12-31T02:44:25.982Z,100.00
2022-12-31T02:47:08.134Z,100.00
2022-12-31T02:50:15.719Z,100.00
2022-12-31T02:53:14.097Z,100.00
2022-12-31T02:56:08.358Z,100.00
2022-12-31T02:59:31.550Z,100.00
2022-12-31T03:02:15.683Z,100.00
2022-12-31T03:04:47.427Z,100.00
2022-12-31T03:07:20.004Z,100.00
2022-12-31T03:09:47.203Z,100.00
2022-12-31T03:12:34.075Z,100.00
2022-12-31T03:15:01.691Z,100.00
2022-12-31T03:17:28.856Z,100.00
2022-12-31T03:20:14.607Z,100.00
2022-12-31T03:22:43.735Z,100.00
2022-12-31T03:25:31.039Z,100.00
2022-12-31T03:27:58.929Z,100.00
2022-12-31T03:30:26.709Z,100.00
2022-12-31T03:32:56.151Z,100.00
2022-12-31T03:35:25.298Z,100.00
2022-12-31T03:37:53.246Z,100.00
2022-12-31T03:40:22.195Z,100.00
2022-12-31T03:42:49.365Z,100.00
2022-12-31T03:45:16.651Z,100.00
2022-12-31T03:47:44.004Z,100.00
2022-12-31T03:50:12.638Z,100.00
2022-12-31T03:52:39.886Z,100.00
2022-12-31T03:55:08.063Z,100.00
2022-12-31T03:57:35.672Z,100.00
2022-12-31T04:00:06.214Z,100.00
2022-12-31T04:02:34.483Z,100.00
2022-12-31T04:05:01.877Z,100.00
2022-12-31T04:07:30.179Z,100.00
2022-12-31T04:09:57.558Z,100.00
2022-12-31T04:12:24.940Z,100.00
2022-12-31T04:14:52.024Z,100.00
2022-12-31T04:17:19.121Z,100.00
2022-12-31T04:19:46.294Z,100.00
2022-12-31T04:22:13.438Z,100.00
2022-12-31T04:24:42.721Z,100.00
2022-12-31T04:27:10.969Z,100.00
2022-12-31T04:29:38.235Z,100.00
2022-12-31T04:32:06.599Z,100.00
2022-12-31T04:34:34.268Z,100.00
2022-12-31T04:37:03.235Z,100.00
2022-12-31T04:39:30.594Z,100.00
2022-12-31T04:41:57.653Z,100.00
2022-12-31T04:44:24.782Z,100.00
2022-12-31T04:46:51.930Z,100.00
2022-12-31T04:49:19.117Z,100.00
2022-12-31T04:51:46.242Z,100.00
2022-12-31T04:54:13.328Z,100.00
2022-12-31T04:56:40.438Z,100.00
2022-12-31T04:59:08.780Z,100.00
2022-12-31T05:01:36.740Z,100.00
2022-12-31T05:04:04.032Z,100.00
2022-12-31T05:06:31.335Z,100.00
2022-12-31T05:08:58.436Z,100.00
2022-12-31T05:11:25.523Z,100.00
2022-12-31T05:13:52.791Z,100.00
2022-12-31T05:16:19.972Z,100.00
2022-12-31T05:18:47.168Z,100.00
2022-12-31T05:21:20.030Z,100.00
2022-12-31T05:23:47.449Z,100.00
2022-12-31T05:26:15.091Z,100.00
2022-12-31T05:28:42.353Z,100.00
2022-12-31T05:31:10.131Z,100.00
2022-12-31T05:33:37.274Z,100.00
2022-12-31T05:36:04.835Z,100.00
2022-12-31T05:38:33.176Z,100.00
2022-12-31T05:41:02.945Z,100.00
2022-12-31T05:43:30.752Z,100.00
2022-12-31T05:46:04.035Z,100.00
2022-12-31T05:48:31.839Z,100.00
2022-12-31T05:50:59.050Z,100.00
2022-12-31T05:53:26.162Z,100.00
2022-12-31T05:55:53.293Z,100.00
2022-12-31T05:58:20.405Z,100.00
2022-12-31T06:00:47.506Z,100.00
2022-12-31T06:03:14.692Z,100.00
2022-12-31T06:05:42.820Z,100.00
2022-12-31T06:08:11.248Z,100.00
2022-12-31T06:10:40.115Z,100.00
2022-12-31T06:13:08.024Z,100.00
2022-12-31T06:15:39.382Z,100.00
2022-12-31T06:18:07.057Z,100.00
2022-12-31T06:20:36.926Z,100.00
2022-12-31T06:23:04.630Z,100.00
2022-12-31T06:25:32.130Z,100.00
2022-12-31T06:27:59.231Z,100.00
2022-12-31T06:30:26.306Z,100.00
2022-12-31T06:32:55.007Z,100.00
2022-12-31T06:35:22.327Z,100.00
2022-12-31T06:37:52.112Z,100.00
2022-12-31T06:40:19.224Z,100.00
2022-12-31T06:42:46.307Z,100.00
2022-12-31T06:45:13.395Z,100.00
2022-12-31T06:47:40.596Z,100.00
2022-12-31T06:50:08.331Z,100.00
2022-12-31T06:52:35.450Z,100.00
2022-12-31T06:55:03.050Z,100.00
2022-12-31T06:57:30.770Z,100.00
2022-12-31T06:59:59.542Z,100.00
2022-12-31T07:02:48.206Z,100.00
2022-12-31T07:05:24.217Z,100.00
2022-12-31T07:08:33.344Z,100.00
2022-12-31T07:11:10.140Z,100.00
2022-12-31T07:13:55.639Z,100.00
2022-12-31T07:16:36.031Z,100.00
2022-12-31T07:19:28.838Z,100.00
2022-12-31T07:21:58.846Z,100.00
2022-12-31T07:24:26.364Z,100.00
2022-12-31T07:26:57.013Z,100.00
2022-12-31T07:29:36.206Z,100.00
2022-12-31T07:32:06.065Z,100.00
2022-12-31T07:35:11.509Z,100.00
2022-12-31T07:37:55.443Z,100.00
2022-12-31T07:40:40.646Z,100.00
2022-12-31T07:43:22.801Z,100.00
2022-12-31T07:46:01.732Z,100.00
2022-12-31T07:48:29.837Z,100.00
2022-12-31T07:50:57.756Z,100.00
2022-12-31T07:53:25.653Z,100.00
2022-12-31T07:55:59.716Z,100.00
2022-12-31T07:58:37.988Z,100.00
2022-12-31T08:01:06.650Z,100.00
2022-12-31T08:03:41.595Z,100.00
2022-12-31T08:06:32.772Z,100.00
2022-12-31T08:09:06.743Z,100.00
2022-12-31T08:11:52.982Z,100.00
2022-12-31T08:14:20.273Z,100.00
2022-12-31T08:16:47.815Z,100.00
2022-12-31T08:19:27.162Z,100.00
2022-12-31T08:22:06.182Z,100.00
2022-12-31T08:25:07.570Z,100.00
2022-12-31T08:27:47.542Z,100.00
2022-12-31T08:30:20.860Z,99.09
2022-12-31T08:33:15.370Z,99.65
2022-12-31T08:36:10.201Z,98.76
2022-12-31T08:39:07.048Z,98.78
2022-12-31T08:41:44.219Z,98.36
2022-12-31T08:44:29.324Z,97.57
2022-12-31T08:47:02.795Z,97.81
2022-12-31T08:49:32.180Z,97.16
2022-12-31T08:52:00.291Z,95.66
2022-12-31T08:54:27.771Z,96.31
2022-12-31T08:57:07.579Z,96.10
2022-12-31T08:59:51.000Z,95.44
2022-12-31T09:02:51.875Z,95.35
2022-12-31T09:05:24.878Z,95.99
2022-12-31T09:08:36.860Z,94.26
2022-12-31T09:11:22.578Z,94.58
2022-12-31T09:14:21.479Z,92.91
2022-12-31T09:16:53.873Z,92.53
2022-12-31T09:19:21.033Z,92.48
2022-12-31T09:21:48.431Z,92.28
2022-12-31T09:24:16.299Z,91.99
2022-12-31T09:27:25.451Z,89.55
2022-12-31T09:30:01.725Z,90.81
2022-12-31T09:32:34.846Z,92.23
2022-12-31T09:35:11.171Z,91.77
2022-12-31T09:37:48.711Z,90.42
2022-12-31T09:40:49.153Z,90.49
2022-12-31T09:43:38.029Z,88.71
2022-12-31T09:46:41.820Z,88.28
2022-12-31T09:49:45.953Z,88.70
2022-12-31T09:52:31.699Z,88.78
2022-12-31T09:55:07.642Z,88.81
2022-12-31T09:57:42.625Z,88.09
2022-12-31T10:00:48.950Z,86.68
2022-12-31T10:03:40.667Z,87.27
2022-12-31T10:06:28.623Z,85.98
2022-12-31T10:09:06.712Z,85.22
2022-12-31T10:12:03.856Z,84.89
2022-12-31T10:14:38.117Z,84.88
2022-12-31T10:17:20.079Z,84.98
2022-12-31T10:19:50.179Z,84.02
2022-12-31T10:22:30.808Z,83.05
2022-12-31T10:25:03.957Z,82.07
2022-12-31T10:27:37.142Z,83.05
2022-12-31T10:30:15.279Z,81.26
2022-12-31T10:33:18.202Z,79.73
2022-12-31T10:35:56.209Z,78.72
2022-12-31T10:38:38.164Z,78.62
2022-12-31T10:41:11.276Z,78.62
2022-12-31T10:43:53.703Z,78.79
2022-12-31T10:46:23.029Z,76.53
2022-12-31T10:49:13.523Z,76.26
2022-12-31T10:51:53.897Z,75.57
2022-12-31T10:54:57.946Z,75.83
2022-12-31T10:57:49.643Z,76.28
2022-12-31T11:00:19.695Z,76.56
2022-12-31T11:03:38.583Z,75.68
2022-12-31T11:06:53.698Z,76.17
2022-12-31T11:09:45.192Z,76.74
2022-12-31T11:12:43.259Z,75.97
2022-12-31T11:15:22.207Z,75.16
2022-12-31T11:18:07.462Z,75.84
2022-12-31T11:20:46.536Z,74.94
2022-12-31T11:23:52.810Z,75.01
2022-12-31T11:26:35.012Z,74.57
2022-12-31T11:29:17.526Z,75.32
2022-12-31T11:32:14.121Z,76.68
2022-12-31T11:35:18.073Z,76.08
2022-12-31T11:38:18.106Z,73.51
2022-12-31T11:41:03.866Z,74.58
2022-12-31T11:43:49.714Z,72.83
2022-12-31T11:47:05.699Z,73.14
2022-12-31T11:50:15.845Z,73.05
2022-12-31T11:52:52.053Z,71.76
2022-12-31T11:55:35.058Z,72.48
2022-12-31T11:58:16.144Z,73.00
2022-12-31T12:00:57.233Z,73.73
2022-12-31T12:03:24.687Z,71.38
2022-12-31T12:05:51.895Z,71.72
2022-12-31T12:08:19.816Z,71.43
2022-12-31T12:10:50.855Z,72.16
2022-12-31T12:13:17.905Z,71.51
2022-12-31T12:15:48.852Z,71.32
2022-12-31T12:18:25.082Z,71.49
2022-12-31T12:20:52.899Z,71.43
2022-12-31T12:23:27.058Z,71.43
2022-12-31T12:25:54.211Z,73.99
2022-12-31T12:28:24.556Z,70.98
2022-12-31T12:30:56.931Z,72.70
2022-12-31T12:33:24.992Z,73.89
2022-12-31T12:35:52.298Z,73.88
2022-12-31T12:38:23.133Z,73.75
2022-12-31T12:40:59.788Z,71.32
2022-12-31T12:43:37.279Z,71.86
2022-12-31T12:46:07.743Z,72.50
2022-12-31T12:48:41.315Z,72.52
2022-12-31T12:51:37.216Z,72.09
2022-12-31T12:54:41.404Z,71.58
2022-12-31T12:57:41.736Z,72.26
2022-12-31T13:00:17.733Z,71.93
2022-12-31T13:03:21.970Z,72.40
2022-12-31T13:06:10.281Z,71.02
2022-12-31T13:08:54.362Z,72.04
2022-12-31T13:11:40.401Z,72.13
2022-12-31T13:14:23.385Z,72.68
2022-12-31T13:16:59.699Z,72.08
2022-12-31T13:19:35.666Z,72.46
2022-12-31T13:22:16.301Z,72.63
2022-12-31T13:24:49.096Z,71.59
2022-12-31T13:27:38.145Z,72.69
2022-12-31T13:30:15.239Z,73.76
2022-12-31T13:32:50.184Z,73.18
2022-12-31T13:35:28.137Z,73.51
2022-12-31T13:38:05.759Z,73.21
2022-12-31T13:40:46.228Z,73.27
2022-12-31T13:43:20.646Z,73.12
2022-12-31T13:46:00.655Z,74.24
2022-12-31T13:48:35.567Z,74.14
2022-12-31T13:51:14.179Z,74.03
2022-12-31T13:54:21.996Z,73.41
2022-12-31T13:56:52.059Z,72.75
2022-12-31T13:59:39.545Z,73.51
2022-12-31T14:02:34.379Z,74.57
2022-12-31T14:05:23.262Z,73.85
2022-12-31T14:08:01.844Z,74.54
2022-12-31T14:10:48.625Z,74.64
2022-12-31T14:13:52.669Z,73.99
2022-12-31T14:16:35.422Z,73.51
2022-12-31T14:19:40.875Z,73.67
2022-12-31T14:22:30.020Z,74.97
2022-12-31T14:24:59.881Z,75.12
2022-12-31T14:27:32.933Z,76.24
2022-12-31T14:30:06.304Z,75.77
2022-12-31T14:33:05.781Z,75.75
2022-12-31T14:35:50.855Z,76.20
2022-12-31T14:38:30.383Z,77.69
2022-12-31T14:41:15.709Z,77.01
2022-12-31T14:44:16.690Z,78.02
2022-12-31T14:47:17.631Z,76.98
2022-12-31T14:50:01.165Z,77.32
2022-12-31T14:52:47.433Z,78.80
2022-12-31T14:55:17.141Z,79.24
2022-12-31T14:58:25.793Z,79.52
2022-12-31T15:00:32.469Z,78.94
2022-12-31T15:03:04.515Z,78.90
2022-12-31T15:05:37.435Z,80.29
2022-12-31T15:08:33.242Z,80.09
2022-12-31T15:11:17.499Z,79.72
2022-12-31T15:13:51.383Z,80.35
2022-12-31T15:16:27.428Z,80.05
2022-12-31T15:19:09.938Z,80.67
2022-12-31T15:21:51.448Z,80.82
2022-12-31T15:24:24.372Z,81.88
2022-12-31T15:26:58.042Z,83.36
2022-12-31T15:29:30.272Z,84.03
2022-12-31T15:31:59.970Z,85.34
2022-12-31T15:34:30.874Z,85.33
2022-12-31T15:37:00.715Z,85.24
2022-12-31T15:39:30.640Z,85.72
2022-12-31T15:45:00.555Z,86.59
2022-12-31T15:47:36.453Z,86.25
2022-12-31T15:50:08.051Z,87.32
2022-12-31T15:52:44.342Z,87.13
2022-12-31T15:55:31.850Z,88.48
2022-12-31T15:58:05.140Z,88.02
2022-12-31T16:01:14.005Z,87.62
2022-12-31T16:03:48.023Z,88.20
2022-12-31T16:06:16.639Z,88.49
2022-12-31T16:08:46.601Z,88.72
2022-12-31T16:11:14.643Z,89.81
2022-12-31T16:13:48.717Z,90.20
2022-12-31T16:16:31.476Z,90.15
2022-12-31T16:19:00.312Z,90.77
2022-12-31T16:21:34.920Z,90.50
2022-12-31T16:24:03.975Z,90.84
2022-12-31T16:26:43.740Z,90.84
2022-12-31T16:29:16.222Z,90.68
2022-12-31T16:31:45.323Z,90.99
2022-12-31T16:34:18.520Z,90.63
2022-12-31T16:36:56.703Z,90.66
2022-12-31T16:39:26.577Z,90.54
2022-12-31T16:42:17.793Z,90.51
2022-12-31T16:44:45.346Z,91.07
2022-12-31T16:47:38.209Z,92.62
2022-12-31T16:50:13.457Z,93.54
2022-12-31T16:52:45.888Z,93.90
2022-12-31T16:55:23.232Z,93.69
2022-12-31T16:57:55.653Z,93.43
2022-12-31T17:00:25.296Z,92.91
2022-12-31T17:03:23.530Z,92.05
2022-12-31T17:06:14.064Z,92.36
2022-12-31T17:08:56.102Z,91.90
2022-12-31T17:11:34.172Z,92.17
2022-12-31T17:14:14.237Z,91.00
2022-12-31T17:17:01.362Z,90.85
2022-12-31T17:19:37.245Z,91.09
2022-12-31T17:22:10.093Z,91.54
2022-12-31T17:24:38.438Z,91.74
2022-12-31T17:27:08.032Z,91.87
2022-12-31T17:29:35.619Z,92.26
2022-12-31T17:32:25.432Z,92.69
2022-12-31T17:34:52.545Z,92.62
2022-12-31T17:37:28.021Z,92.83
2022-12-31T17:40:32.239Z,92.49
2022-12-31T17:42:49.169Z,93.06
2022-12-31T17:45:20.956Z,93.55
2022-12-31T17:47:51.154Z,94.83
2022-12-31T17:50:28.177Z,94.80
2022-12-31T17:53:10.777Z,94.61
2022-12-31T17:55:38.414Z,94.77
2022-12-31T17:58:06.617Z,94.46
2022-12-31T18:00:36.844Z,94.04
2022-12-31T18:03:04.110Z,94.98
2022-12-31T18:05:31.242Z,95.92
2022-12-31T18:07:58.323Z,95.08
2022-12-31T18:10:27.689Z,95.17
2022-12-31T18:12:54.863Z,96.29
2022-12-31T18:15:24.379Z,95.99
2022-12-31T18:17:51.592Z,96.26
2022-12-31T18:20:18.938Z,96.89
2022-12-31T18:22:46.049Z,97.50
2022-12-31T18:25:21.977Z,98.01
2022-12-31T18:27:50.834Z,98.28
2022-12-31T18:30:18.411Z,98.48
2022-12-31T18:32:46.241Z,98.57
2022-12-31T18:38:12.369Z,98.97
2022-12-31T18:40:44.028Z,98.86
2022-12-31T18:43:19.157Z,98.82
2022-12-31T18:45:47.680Z,99.07
2022-12-31T18:48:15.413Z,99.11
2022-12-31T18:50:43.018Z,99.06
2022-12-31T18:53:19.703Z,99.37
2022-12-31T18:55:53.248Z,99.74
2022-12-31T18:58:21.172Z,99.91
2022-12-31T19:00:49.516Z,100.00
2022-12-31T19:03:21.897Z,100.00
2022-12-31T19:05:50.741Z,100.00
2022-12-31T19:08:19.299Z,100.00
2022-12-31T19:10:48.313Z,100.00
2022-12-31T19:13:17.889Z,100.00
2022-12-31T19:15:50.067Z,100.00
2022-12-31T19:18:17.286Z,100.00
2022-12-31T19:20:44.667Z,100.00
2022-12-31T19:23:20.310Z,100.00
2022-12-31T19:25:49.109Z,100.00
2022-12-31T19:28:19.836Z,100.00
2022-12-31T19:30:47.221Z,100.00
2022-12-31T19:33:15.845Z,100.00
2022-12-31T19:35:44.055Z,100.00
2022-12-31T19:38:25.722Z,100.00
2022-12-31T19:40:53.651Z,100.00
2022-12-31T19:43:22.933Z,100.00
2022-12-31T19:45:51.288Z,100.00
2022-12-31T19:48:25.855Z,100.00
2022-12-31T19:50:57.491Z,100.00
2022-12-31T19:53:26.811Z,100.00
2022-12-31T19:55:54.221Z,100.00
2022-12-31T19:58:25.556Z,100.00
2022-12-31T20:01:02.379Z,100.00
2022-12-31T20:03:32.775Z,100.00
2022-12-31T20:06:08.424Z,100.00
2022-12-31T20:08:37.564Z,100.00
2022-12-31T20:11:19.164Z,100.00
2022-12-31T20:13:47.560Z,100.00
2022-12-31T20:16:17.313Z,100.00
2022-12-31T20:18:46.056Z,100.00
2022-12-31T20:21:17.629Z,100.00
2022-12-31T20:23:45.126Z,100.00
2022-12-31T20:26:12.627Z,100.00
2022-12-31T20:28:39.946Z,100.00
2022-12-31T20:31:16.227Z,100.00
2022-12-31T20:33:43.917Z,100.00
2022-12-31T20:36:13.946Z,100.00
2022-12-31T20:38:41.442Z,100.00
2022-12-31T20:41:12.613Z,100.00
2022-12-31T20:43:40.491Z,100.00
2022-12-31T20:46:14.816Z,100.00
2022-12-31T20:48:43.114Z,100.00
2022-12-31T20:51:10.507Z,100.00
2022-12-31T20:53:37.614Z,100.00
2022-12-31T20:56:05.910Z,100.00
2022-12-31T20:58:33.124Z,100.00
2022-12-31T21:01:00.510Z,100.00
2022-12-31T21:04:03.741Z,100.00
2022-12-31T21:06:15.365Z,100.00
2022-12-31T21:08:42.781Z,100.00
2022-12-31T21:11:28.728Z,100.00
2022-12-31T21:13:57.429Z,100.00
2022-12-31T21:16:25.392Z,100.00
2022-12-31T21:18:52.725Z,100.00
2022-12-31T21:21:20.226Z,100.00
2022-12-31T21:23:47.292Z,100.00
2022-12-31T21:26:15.099Z,100.00
2022-12-31T21:28:42.902Z,100.00
2022-12-31T21:31:12.264Z,100.00
2022-12-31T21:33:39.552Z,100.00
2022-12-31T21:36:06.846Z,100.00
2022-12-31T21:38:36.327Z,100.00
2022-12-31T21:41:04.723Z,100.00
2022-12-31T21:43:31.929Z,100.00
2022-12-31T21:46:01.505Z,100.00
2022-12-31T21:48:28.665Z,100.00
2022-12-31T21:51:08.880Z,100.00
2022-12-31T21:53:37.499Z,100.00
2022-12-31T21:56:08.529Z,100.00
2022-12-31T21:58:40.599Z,100.00
2022-12-31T22:01:28.523Z,100.00
2022-12-31T22:03:55.700Z,100.00
2022-12-31T22:06:24.723Z,100.00
2022-12-31T22:08:54.220Z,100.00
2022-12-31T22:11:23.998Z,100.00
2022-12-31T22:13:51.231Z,100.00
2022-12-31T22:16:20.168Z,100.00
2022-12-31T22:18:47.848Z,100.00
2022-12-31T22:21:21.898Z,100.00
2022-12-31T22:23:51.983Z,100.00
2022-12-31T22:26:21.940Z,100.00
2022-12-31T22:28:49.117Z,100.00
2022-12-31T22:31:24.331Z,100.00
2022-12-31T22:33:52.238Z,100.00
2022-12-31T22:36:22.203Z,100.00
2022-12-31T22:38:51.424Z,100.00
2022-12-31T22:41:20.664Z,100.00
2022-12-31T22:43:50.370Z,100.00
2022-12-31T22:46:26.238Z,100.00
2022-12-31T22:48:56.911Z,100.00
2022-12-31T22:51:24.024Z,100.00
2022-12-31T22:53:51.197Z,100.00
2022-12-31T22:56:19.116Z,100.00
2022-12-31T22:58:46.975Z,100.00
2022-12-31T23:01:19.074Z,100.00
2022-12-31T23:03:47.548Z,100.00
2022-12-31T23:06:15.461Z,100.00
2022-12-31T23:09:02.628Z,100.00
2022-12-31T23:11:30.098Z,100.00
2022-12-31T23:14:15.587Z,100.00
2022-12-31T23:17:30.297Z,100.00
2022-12-31T23:20:07.004Z,100.00
2022-12-31T23:22:52.807Z,100.00
2022-12-31T23:25:20.257Z,100.00
2022-12-31T23:27:47.374Z,100.00
2022-12-31T23:30:14.570Z,100.00
2022-12-31T23:32:41.687Z,100.00
2022-12-31T23:35:10.018Z,100.00
2022-12-31T23:37:37.456Z,100.00
2022-12-31T23:40:05.151Z,100.00
2022-12-31T23:42:32.245Z,100.00
2022-12-31T23:44:59.368Z,100.00
2022-12-31T23:47:26.417Z,100.00
2022-12-31T23:49:53.708Z,100.00
2022-12-31T23:52:20.824Z,100.00
2022-12-31T23:54:47.993Z,100.00
2022-12-31T23:57:15.132Z,100.00
2022-12-31T23:59:42.246Z,100.00
